createdAt,value
2023-04-09T00:00:49.432Z,89.16
2023-04-09T00:01:51.905Z,90.80
2023-04-09T00:02:53.577Z,91.40
2023-04-09T00:03:56.444Z,90.95
2023-04-09T00:04:58.182Z,91.66
2023-04-09T00:06:02.208Z,93.54
2023-04-09T00:07:03.709Z,95.00
2023-04-09T00:08:06.512Z,95.02
2023-04-09T00:09:08.069Z,94.93
2023-04-09T00:10:10.886Z,95.49
2023-04-09T00:11:12.397Z,95.98
2023-04-09T00:12:14.892Z,95.42
2023-04-09T00:13:22.575Z,97.09
2023-04-09T00:14:31.029Z,99.78
2023-04-09T00:15:32.518Z,100.00
2023-04-09T00:16:35.048Z,99.13
2023-04-09T00:17:36.777Z,99.04
2023-04-09T00:18:39.295Z,99.62
2023-04-09T00:19:40.880Z,99.31
2023-04-09T00:20:44.247Z,100.00
2023-04-09T00:21:48.263Z,100.00
2023-04-09T00:22:51.905Z,100.00
2023-04-09T00:23:53.426Z,100.00
2023-04-09T00:24:55.999Z,99.58
2023-04-09T00:25:57.550Z,99.53
2023-04-09T00:27:00.043Z,99.06
2023-04-09T00:28:01.689Z,98.95
2023-04-09T00:29:04.336Z,99.49
2023-04-09T00:30:07.259Z,99.54
2023-04-09T00:31:09.906Z,100.00
2023-04-09T00:32:11.446Z,99.99
2023-04-09T00:33:13.907Z,98.75
2023-04-09T00:34:15.868Z,98.99
2023-04-09T00:35:18.490Z,98.33
2023-04-09T00:36:19.995Z,97.64
2023-04-09T00:37:23.835Z,96.05
2023-04-09T00:38:25.403Z,97.63
2023-04-09T00:39:27.943Z,97.76
2023-04-09T00:40:29.582Z,96.54
2023-04-09T00:41:32.044Z,95.79
2023-04-09T00:42:34.517Z,98.24
2023-04-09T00:43:39.520Z,100.00
2023-04-09T00:44:41.077Z,99.80
2023-04-09T00:45:43.569Z,98.89
2023-04-09T00:46:45.249Z,99.96
2023-04-09T00:47:47.913Z,99.60
2023-04-09T00:48:49.720Z,98.29
2023-04-09T00:49:52.427Z,99.69
2023-04-09T00:50:54.049Z,100.00
2023-04-09T00:51:56.860Z,98.09
2023-04-09T00:53:00.470Z,97.80
2023-04-09T00:54:03.117Z,97.40
2023-04-09T00:55:06.007Z,97.28
2023-04-09T00:56:09.175Z,97.24
2023-04-09T00:57:11.296Z,96.62
2023-04-09T00:58:14.758Z,96.15
2023-04-09T00:59:16.474Z,95.44
2023-04-09T01:00:19.322Z,95.71
2023-04-09T01:01:20.912Z,97.62
2023-04-09T01:02:23.847Z,97.62
2023-04-09T01:03:25.862Z,98.47
2023-04-09T01:04:28.535Z,97.32
2023-04-09T01:05:37.950Z,95.49
2023-04-09T01:06:52.772Z,94.44
2023-04-09T01:08:08.783Z,95.31
2023-04-09T01:09:19.139Z,94.45
2023-04-09T01:10:28.593Z,93.51
2023-04-09T01:11:37.004Z,92.60
2023-04-09T01:12:51.222Z,91.30
2023-04-09T01:14:05.351Z,90.38
2023-04-09T01:15:09.910Z,89.49
2023-04-09T01:16:16.757Z,89.02
2023-04-09T01:17:24.348Z,88.17
2023-04-09T01:18:31.973Z,87.63
2023-04-09T01:19:42.805Z,86.95
2023-04-09T01:20:53.045Z,86.43
2023-04-09T01:21:57.832Z,86.12
2023-04-09T01:23:08.490Z,85.82
2023-04-09T01:24:21.189Z,86.07
2023-04-09T01:25:38.572Z,86.90
2023-04-09T01:26:54.764Z,87.04
2023-04-09T01:28:13.046Z,87.45
2023-04-09T01:29:17.603Z,87.54
2023-04-09T01:30:22.652Z,88.01
2023-04-09T01:31:30.088Z,87.74
2023-04-09T01:32:35.415Z,90.38
2023-04-09T01:33:38.458Z,91.29
2023-04-09T01:34:42.487Z,91.90
2023-04-09T01:35:46.718Z,92.47
2023-04-09T01:36:53.123Z,93.11
2023-04-09T01:37:55.844Z,93.57
2023-04-09T01:38:58.609Z,93.27
2023-04-09T01:40:00.403Z,92.29
2023-04-09T01:41:04.507Z,91.75
2023-04-09T01:42:09.673Z,90.66
2023-04-09T01:43:14.985Z,90.08
2023-04-09T01:44:17.834Z,89.65
2023-04-09T01:45:22.034Z,89.45
2023-04-09T01:46:25.471Z,88.89
2023-04-09T01:47:28.738Z,88.21
2023-04-09T01:48:31.567Z,88.45
2023-04-09T01:49:34.274Z,88.98
2023-04-09T01:50:35.881Z,88.43
2023-04-09T01:51:38.933Z,87.81
2023-04-09T01:52:41.190Z,87.81
2023-04-09T01:53:43.799Z,87.42
2023-04-09T01:54:45.293Z,86.72
2023-04-09T01:55:47.831Z,86.42
2023-04-09T01:56:49.462Z,86.52
2023-04-09T01:57:51.929Z,86.03
2023-04-09T01:58:55.026Z,85.79
2023-04-09T01:59:57.772Z,85.21
2023-04-09T02:01:05.606Z,85.14
2023-04-09T02:02:13.189Z,84.57
2023-04-09T02:03:18.850Z,83.98
2023-04-09T02:04:25.115Z,83.94
2023-04-09T02:05:31.808Z,83.56
2023-04-09T02:06:40.110Z,83.95
2023-04-09T02:07:45.425Z,84.15
2023-04-09T02:08:48.785Z,84.43
2023-04-09T02:09:53.291Z,84.26
2023-04-09T02:11:03.255Z,84.41
2023-04-09T02:12:07.046Z,84.20
2023-04-09T02:13:12.649Z,84.81
2023-04-09T02:14:16.302Z,85.03
2023-04-09T02:15:21.314Z,84.69
2023-04-09T02:16:23.392Z,84.90
2023-04-09T02:17:25.913Z,84.66
2023-04-09T02:18:29.539Z,84.91
2023-04-09T02:19:42.215Z,85.11
2023-04-09T02:20:43.801Z,85.33
2023-04-09T02:21:47.113Z,85.03
2023-04-09T02:22:48.761Z,85.30
2023-04-09T02:23:51.307Z,85.53
2023-04-09T02:24:52.880Z,85.69
2023-04-09T02:25:55.797Z,89.80
2023-04-09T02:26:57.854Z,92.24
2023-04-09T02:28:00.358Z,92.34
2023-04-09T02:29:01.944Z,91.55
2023-04-09T02:30:06.810Z,90.85
2023-04-09T02:31:08.386Z,89.92
2023-04-09T02:32:10.966Z,89.49
2023-04-09T02:33:12.500Z,88.79
2023-04-09T02:34:15.041Z,87.92
2023-04-09T02:35:16.582Z,87.30
2023-04-09T02:36:19.094Z,86.88
2023-04-09T02:37:20.775Z,86.40
2023-04-09T02:38:23.408Z,86.10
2023-04-09T02:39:25.139Z,86.71
2023-04-09T02:40:27.981Z,86.91
2023-04-09T02:41:31.744Z,86.35
2023-04-09T02:42:34.412Z,86.93
2023-04-09T02:43:36.162Z,86.90
2023-04-09T02:44:38.624Z,86.72
2023-04-09T02:45:42.488Z,86.85
2023-04-09T02:46:45.973Z,87.70
2023-04-09T02:47:47.583Z,87.35
2023-04-09T02:48:50.399Z,88.24
2023-04-09T02:49:52.212Z,88.39
2023-04-09T02:50:55.198Z,88.40
2023-04-09T02:51:56.761Z,87.93
2023-04-09T02:52:59.792Z,87.63
2023-04-09T02:54:01.547Z,87.83
2023-04-09T02:55:04.225Z,89.37
2023-04-09T02:56:06.084Z,89.54
2023-04-09T02:57:08.598Z,88.79
2023-04-09T02:58:10.221Z,88.62
2023-04-09T02:59:12.760Z,88.83
2023-04-09T03:00:14.938Z,88.49
2023-04-09T03:01:18.863Z,88.28
2023-04-09T03:02:20.826Z,87.54
2023-04-09T03:03:23.622Z,87.63
2023-04-09T03:04:25.450Z,88.24
2023-04-09T03:05:28.097Z,88.11
2023-04-09T03:06:29.647Z,88.24
2023-04-09T03:07:32.161Z,88.21
2023-04-09T03:08:33.713Z,87.90
2023-04-09T03:09:36.248Z,89.32
2023-04-09T03:10:37.872Z,90.67
2023-04-09T03:11:40.341Z,91.73
2023-04-09T03:12:44.519Z,93.07
2023-04-09T03:13:47.038Z,93.90
2023-04-09T03:14:48.776Z,93.50
2023-04-09T03:15:52.779Z,93.32
2023-04-09T03:16:55.663Z,94.52
2023-04-09T03:17:58.185Z,96.80
2023-04-09T03:18:59.701Z,99.65
2023-04-09T03:20:02.216Z,100.00
2023-04-09T03:21:07.150Z,100.00
2023-04-09T03:22:08.708Z,100.00
2023-04-09T03:23:11.495Z,100.00
2023-04-09T03:24:13.005Z,100.00
2023-04-09T03:25:15.797Z,100.00
2023-04-09T03:26:17.390Z,100.00
2023-04-09T03:27:19.846Z,100.00
2023-04-09T03:28:21.419Z,100.00
2023-04-09T03:29:23.900Z,100.00
2023-04-09T03:30:25.710Z,100.00
2023-04-09T03:31:28.228Z,100.00
2023-04-09T03:32:31.187Z,100.00
2023-04-09T03:33:33.672Z,100.00
2023-04-09T03:34:35.446Z,100.00
2023-04-09T03:35:37.988Z,100.00
2023-04-09T03:36:40.559Z,100.00
2023-04-09T03:37:42.272Z,100.00
2023-04-09T03:38:44.760Z,99.99
2023-04-09T03:39:46.333Z,97.78
2023-04-09T03:40:48.831Z,97.12
2023-04-09T03:41:50.559Z,98.88
2023-04-09T03:42:52.986Z,100.00
2023-04-09T03:43:54.493Z,100.00
2023-04-09T03:44:56.999Z,100.00
2023-04-09T03:45:58.691Z,100.00
2023-04-09T03:47:01.246Z,100.00
2023-04-09T03:48:04.338Z,100.00
2023-04-09T03:49:06.830Z,100.00
2023-04-09T03:50:09.110Z,100.00
2023-04-09T03:51:12.919Z,100.00
2023-04-09T03:52:15.372Z,100.00
2023-04-09T03:53:18.000Z,100.00
2023-04-09T03:54:19.499Z,100.00
2023-04-09T03:55:22.120Z,100.00
2023-04-09T03:56:23.660Z,100.00
2023-04-09T03:57:26.137Z,100.00
2023-04-09T03:58:27.638Z,100.00
2023-04-09T03:59:30.397Z,100.00
2023-04-09T04:00:32.075Z,100.00
2023-04-09T04:01:34.931Z,100.00
2023-04-09T04:02:36.985Z,100.00
2023-04-09T04:03:41.092Z,100.00
2023-04-09T04:04:43.065Z,100.00
2023-04-09T04:05:45.607Z,100.00
2023-04-09T04:06:47.161Z,100.00
2023-04-09T04:07:49.726Z,100.00
2023-04-09T04:08:52.359Z,100.00
2023-04-09T04:09:55.043Z,100.00
2023-04-09T04:10:56.523Z,100.00
2023-04-09T04:11:59.094Z,100.00
2023-04-09T04:13:02.058Z,100.00
2023-04-09T04:14:04.602Z,100.00
2023-04-09T04:15:07.291Z,100.00
2023-04-09T04:16:10.656Z,100.00
2023-04-09T04:17:12.265Z,100.00
2023-04-09T04:18:14.904Z,100.00
2023-04-09T04:19:17.729Z,100.00
2023-04-09T04:20:20.574Z,100.00
2023-04-09T04:21:22.145Z,100.00
2023-04-09T04:22:26.255Z,100.00
2023-04-09T04:23:27.974Z,100.00
2023-04-09T04:24:30.436Z,100.00
2023-04-09T04:25:32.025Z,100.00
2023-04-09T04:26:34.524Z,100.00
2023-04-09T04:27:36.169Z,100.00
2023-04-09T04:28:39.573Z,100.00
2023-04-09T04:29:41.187Z,100.00
2023-04-09T04:30:43.738Z,100.00
2023-04-09T04:31:45.340Z,100.00
2023-04-09T04:32:48.245Z,100.00
2023-04-09T04:33:49.924Z,100.00
2023-04-09T04:34:53.802Z,100.00
2023-04-09T04:36:04.390Z,100.00
2023-04-09T04:37:06.863Z,100.00
2023-04-09T04:38:08.511Z,100.00
2023-04-09T04:39:13.849Z,100.00
2023-04-09T04:40:15.438Z,100.00
2023-04-09T04:41:18.091Z,100.00
2023-04-09T04:42:20.020Z,100.00
2023-04-09T04:43:22.510Z,100.00
2023-04-09T04:44:24.062Z,100.00
2023-04-09T04:45:26.629Z,99.25
2023-04-09T04:46:28.127Z,97.41
2023-04-09T04:47:30.640Z,96.30
2023-04-09T04:48:32.201Z,95.80
2023-04-09T04:49:34.681Z,95.90
2023-04-09T04:50:37.502Z,94.84
2023-04-09T04:51:39.949Z,93.97
2023-04-09T04:52:41.458Z,94.20
2023-04-09T04:53:43.975Z,94.76
2023-04-09T04:54:45.494Z,99.09
2023-04-09T04:55:47.954Z,100.00
2023-04-09T04:56:49.513Z,100.00
2023-04-09T04:57:52.443Z,100.00
2023-04-09T04:58:54.375Z,100.00
2023-04-09T04:59:56.938Z,100.00
2023-04-09T05:00:58.566Z,100.00
2023-04-09T05:02:02.586Z,100.00
2023-04-09T05:03:04.361Z,100.00
2023-04-09T05:04:07.042Z,100.00
2023-04-09T05:05:08.792Z,99.71
2023-04-09T05:06:12.609Z,98.60
2023-04-09T05:07:14.055Z,99.95
2023-04-09T05:08:16.499Z,100.00
2023-04-09T05:09:18.754Z,100.00
2023-04-09T05:10:22.003Z,100.00
2023-04-09T05:11:23.713Z,100.00
2023-04-09T05:12:26.272Z,100.00
2023-04-09T05:13:27.780Z,100.00
2023-04-09T05:14:30.274Z,100.00
2023-04-09T05:15:32.005Z,100.00
2023-04-09T05:16:34.592Z,100.00
2023-04-09T05:17:36.321Z,100.00
2023-04-09T05:18:38.785Z,100.00
2023-04-09T05:19:40.314Z,99.77
2023-04-09T05:20:42.838Z,100.00
2023-04-09T05:21:47.271Z,99.50
2023-04-09T05:22:50.074Z,99.82
2023-04-09T05:23:52.503Z,100.00
2023-04-09T05:24:54.045Z,100.00
2023-04-09T05:25:56.493Z,100.00
2023-04-09T05:26:58.028Z,100.00
2023-04-09T05:28:03.964Z,100.00
2023-04-09T05:29:06.718Z,100.00
2023-04-09T05:30:09.309Z,100.00
2023-04-09T05:31:13.320Z,100.00
2023-04-09T05:32:16.073Z,100.00
2023-04-09T05:33:18.530Z,100.00
2023-04-09T05:34:20.216Z,100.00
2023-04-09T05:35:22.733Z,100.00
2023-04-09T05:36:24.392Z,100.00
2023-04-09T05:37:28.146Z,100.00
2023-04-09T05:38:32.069Z,100.00
2023-04-09T05:39:34.539Z,100.00
2023-04-09T05:40:36.258Z,100.00
2023-04-09T05:41:38.835Z,100.00
2023-04-09T05:42:40.530Z,100.00
2023-04-09T05:43:43.652Z,100.00
2023-04-09T05:44:45.258Z,100.00
2023-04-09T05:45:47.729Z,100.00
2023-04-09T05:46:50.249Z,100.00
2023-04-09T05:47:52.863Z,100.00
2023-04-09T05:48:56.371Z,100.00
2023-04-09T05:49:58.823Z,100.00
2023-04-09T05:51:01.009Z,100.00
2023-04-09T05:52:03.664Z,100.00
2023-04-09T05:53:06.735Z,100.00
2023-04-09T05:54:09.140Z,100.00
2023-04-09T05:55:10.967Z,100.00
2023-04-09T05:56:17.111Z,99.68
2023-04-09T05:57:18.657Z,99.96
2023-04-09T05:58:21.580Z,99.53
2023-04-09T05:59:23.119Z,97.81
2023-04-09T06:00:25.718Z,97.33
2023-04-09T06:01:27.831Z,96.99
2023-04-09T06:02:30.420Z,96.40
2023-04-09T06:03:32.152Z,96.47
2023-04-09T06:04:34.699Z,96.65
2023-04-09T06:05:36.256Z,95.83
2023-04-09T06:06:39.651Z,98.42
2023-04-09T06:07:41.294Z,98.40
2023-04-09T06:08:45.576Z,97.86
2023-04-09T06:09:47.095Z,98.15
2023-04-09T06:10:49.713Z,100.00
2023-04-09T06:11:51.223Z,100.00
2023-04-09T06:12:53.839Z,100.00
2023-04-09T06:13:55.371Z,100.00
2023-04-09T06:14:57.811Z,100.00
2023-04-09T06:15:59.413Z,100.00
2023-04-09T06:17:01.927Z,100.00
2023-04-09T06:18:03.467Z,100.00
2023-04-09T06:19:06.326Z,100.00
2023-04-09T06:20:08.846Z,100.00
2023-04-09T06:21:13.451Z,100.00
2023-04-09T06:22:15.975Z,100.00
2023-04-09T06:23:17.476Z,100.00
2023-04-09T06:24:21.460Z,100.00
2023-04-09T06:25:23.982Z,100.00
2023-04-09T06:26:25.865Z,100.00
2023-04-09T06:27:28.265Z,100.00
2023-04-09T06:28:29.758Z,100.00
2023-04-09T06:29:32.222Z,100.00
2023-04-09T06:30:33.897Z,100.00
2023-04-09T06:31:36.457Z,100.00
2023-04-09T06:32:51.028Z,100.00
2023-04-09T06:33:56.338Z,100.00
2023-04-09T06:34:58.165Z,100.00
2023-04-09T06:36:00.903Z,100.00
2023-04-09T06:37:02.470Z,100.00
2023-04-09T06:38:04.894Z,100.00
2023-04-09T06:39:06.669Z,100.00
2023-04-09T06:40:11.932Z,100.00
2023-04-09T06:41:14.873Z,100.00
2023-04-09T06:42:17.301Z,100.00
2023-04-09T06:43:18.826Z,100.00
2023-04-09T06:44:21.480Z,100.00
2023-04-09T06:45:23.204Z,100.00
2023-04-09T06:46:25.986Z,100.00
2023-04-09T06:47:27.516Z,100.00
2023-04-09T06:48:33.201Z,100.00
2023-04-09T06:49:34.731Z,100.00
2023-04-09T06:50:37.285Z,100.00
2023-04-09T06:51:38.907Z,100.00
2023-04-09T06:52:41.545Z,100.00
2023-04-09T06:53:44.075Z,100.00
2023-04-09T06:54:46.185Z,100.00
2023-04-09T06:55:50.309Z,100.00
2023-04-09T06:56:51.981Z,100.00
2023-04-09T06:57:54.451Z,99.06
2023-04-09T06:58:56.912Z,97.73
2023-04-09T06:59:58.421Z,96.65
2023-04-09T07:01:01.120Z,97.57
2023-04-09T07:02:02.793Z,97.80
2023-04-09T07:03:08.149Z,98.17
2023-04-09T07:04:09.919Z,98.95
2023-04-09T07:05:13.108Z,100.00
2023-04-09T07:06:14.737Z,100.00
2023-04-09T07:07:17.223Z,100.00
2023-04-09T07:08:18.827Z,100.00
2023-04-09T07:09:21.358Z,100.00
2023-04-09T07:10:22.822Z,100.00
2023-04-09T07:11:26.694Z,99.41
2023-04-09T07:12:28.251Z,97.24
2023-04-09T07:13:31.295Z,95.48
2023-04-09T07:14:33.031Z,95.45
2023-04-09T07:15:35.570Z,95.51
2023-04-09T07:16:37.134Z,94.44
2023-04-09T07:17:39.748Z,96.03
2023-04-09T07:18:42.414Z,94.87
2023-04-09T07:19:43.919Z,94.79
2023-04-09T07:20:46.371Z,95.21
2023-04-09T07:21:48.791Z,94.05
2023-04-09T07:22:51.344Z,92.74
2023-04-09T07:23:53.059Z,91.57
2023-04-09T07:24:56.499Z,91.23
2023-04-09T07:25:58.958Z,91.62
2023-04-09T07:27:04.949Z,91.10
2023-04-09T07:28:07.481Z,90.09
2023-04-09T07:29:09.072Z,88.64
2023-04-09T07:30:12.025Z,88.31
2023-04-09T07:31:15.412Z,87.66
2023-04-09T07:32:17.176Z,87.47
2023-04-09T07:33:19.701Z,88.08
2023-04-09T07:34:21.607Z,88.26
2023-04-09T07:35:24.100Z,88.91
2023-04-09T07:36:26.595Z,88.91
2023-04-09T07:37:29.063Z,87.89
2023-04-09T07:38:31.608Z,86.72
2023-04-09T07:39:33.146Z,85.80
2023-04-09T07:40:36.681Z,84.40
2023-04-09T07:41:38.313Z,83.68
2023-04-09T07:42:42.453Z,83.00
2023-04-09T07:43:45.021Z,83.24
2023-04-09T07:44:47.506Z,83.36
2023-04-09T07:45:51.306Z,84.56
2023-04-09T07:46:52.880Z,84.95
2023-04-09T07:47:55.538Z,84.26
2023-04-09T07:48:58.050Z,83.67
2023-04-09T07:50:00.601Z,82.53
2023-04-09T07:51:03.141Z,83.84
2023-04-09T07:52:05.676Z,82.93
2023-04-09T07:53:10.580Z,83.25
2023-04-09T07:54:12.982Z,82.04
2023-04-09T07:55:16.741Z,82.19
2023-04-09T07:56:18.872Z,83.87
2023-04-09T07:57:21.354Z,85.50
2023-04-09T07:58:24.174Z,84.87
2023-04-09T07:59:27.610Z,85.13
2023-04-09T08:00:30.088Z,85.06
2023-04-09T08:01:31.594Z,84.25
2023-04-09T08:02:34.204Z,83.39
2023-04-09T08:03:36.302Z,82.43
2023-04-09T08:04:39.145Z,82.51
2023-04-09T08:05:41.248Z,82.85
2023-04-09T08:06:46.686Z,83.97
2023-04-09T08:07:49.144Z,86.16
2023-04-09T08:08:50.868Z,86.15
2023-04-09T08:09:53.470Z,84.72
2023-04-09T08:10:56.186Z,84.08
2023-04-09T08:11:58.642Z,84.44
2023-04-09T08:13:00.356Z,84.95
2023-04-09T08:14:06.163Z,85.70
2023-04-09T08:15:08.598Z,86.59
2023-04-09T08:16:11.079Z,86.01
2023-04-09T08:17:12.682Z,85.94
2023-04-09T08:18:15.067Z,86.83
2023-04-09T08:19:17.497Z,87.30
2023-04-09T08:20:19.973Z,85.77
2023-04-09T08:21:21.557Z,87.19
2023-04-09T08:22:23.945Z,88.94
2023-04-09T08:23:25.913Z,88.88
2023-04-09T08:24:28.346Z,90.57
2023-04-09T08:25:29.876Z,91.27
2023-04-09T08:26:32.715Z,91.54
2023-04-09T08:27:36.060Z,91.56
2023-04-09T08:28:37.797Z,91.18
2023-04-09T08:29:42.583Z,91.77
2023-04-09T08:30:44.682Z,91.55
2023-04-09T08:31:47.138Z,91.32
2023-04-09T08:32:50.044Z,90.50
2023-04-09T08:33:53.445Z,90.89
2023-04-09T08:34:56.068Z,90.83
2023-04-09T08:35:57.642Z,91.84
2023-04-09T08:37:00.724Z,91.66
2023-04-09T08:38:02.231Z,90.36
2023-04-09T08:39:04.864Z,89.68
2023-04-09T08:40:08.731Z,87.80
2023-04-09T08:41:18.676Z,88.71
2023-04-09T08:42:23.960Z,88.13
2023-04-09T08:43:41.891Z,89.82
2023-04-09T08:44:51.266Z,90.49
2023-04-09T08:45:53.993Z,90.24
2023-04-09T08:46:58.332Z,88.87
2023-04-09T08:48:04.150Z,87.78
2023-04-09T08:49:06.993Z,88.46
2023-04-09T08:50:09.205Z,88.41
2023-04-09T08:51:14.589Z,88.63
2023-04-09T08:52:21.736Z,87.94
2023-04-09T08:53:24.447Z,86.23
2023-04-09T08:54:26.996Z,85.74
2023-04-09T08:55:28.701Z,85.33
2023-04-09T08:56:31.453Z,86.21
2023-04-09T08:57:37.496Z,86.37
2023-04-09T08:58:43.582Z,85.43
2023-04-09T08:59:46.563Z,84.97
2023-04-09T09:00:49.702Z,84.71
2023-04-09T09:02:11.241Z,85.79
2023-04-09T09:03:14.866Z,87.51
2023-04-09T09:04:16.606Z,87.98
2023-04-09T09:05:37.015Z,86.99
2023-04-09T09:06:40.036Z,87.07
2023-04-09T09:07:54.728Z,85.51
2023-04-09T09:09:05.049Z,83.86
2023-04-09T09:10:08.719Z,84.10
2023-04-09T09:11:10.229Z,82.57
2023-04-09T09:12:12.803Z,84.11
2023-04-09T09:13:20.000Z,84.94
2023-04-09T09:14:22.442Z,86.40
2023-04-09T09:15:28.821Z,86.88
2023-04-09T09:16:34.711Z,86.25
2023-04-09T09:17:55.899Z,85.58
2023-04-09T09:18:58.637Z,86.12
2023-04-09T09:20:19.930Z,85.67
2023-04-09T09:21:22.014Z,85.07
2023-04-09T09:22:25.942Z,84.31
2023-04-09T09:23:36.493Z,82.61
2023-04-09T09:24:48.476Z,82.63
2023-04-09T09:25:51.859Z,83.77
2023-04-09T09:26:55.656Z,83.83
2023-04-09T09:28:07.396Z,84.24
2023-04-09T09:29:10.605Z,81.78
2023-04-09T09:30:21.988Z,80.20
2023-04-09T09:31:24.567Z,79.00
2023-04-09T09:32:27.947Z,79.64
2023-04-09T09:33:34.460Z,79.42
2023-04-09T09:34:37.036Z,79.31
2023-04-09T09:35:49.716Z,78.83
2023-04-09T09:36:52.314Z,79.33
2023-04-09T09:38:04.221Z,77.83
2023-04-09T09:39:10.267Z,75.61
2023-04-09T09:40:27.028Z,74.89
2023-04-09T09:41:29.530Z,75.48
2023-04-09T09:42:33.050Z,74.48
2023-04-09T09:43:41.520Z,74.55
2023-04-09T09:44:43.983Z,73.09
2023-04-09T09:45:47.030Z,74.51
2023-04-09T09:46:49.599Z,75.01
2023-04-09T09:47:53.090Z,77.84
2023-04-09T09:48:55.950Z,77.82
2023-04-09T09:49:57.562Z,77.53
2023-04-09T09:51:01.437Z,76.72
2023-04-09T09:52:09.782Z,76.83
2023-04-09T09:53:12.141Z,76.46
2023-04-09T09:54:19.472Z,75.56
2023-04-09T09:55:24.133Z,74.02
2023-04-09T09:56:32.614Z,74.14
2023-04-09T09:57:40.356Z,72.90
2023-04-09T09:58:46.726Z,73.70
2023-04-09T09:59:54.991Z,74.89
2023-04-09T10:00:57.515Z,74.77
2023-04-09T10:02:02.625Z,74.37
2023-04-09T10:03:13.138Z,73.19
2023-04-09T10:04:19.025Z,74.32
2023-04-09T10:05:25.005Z,74.74
2023-04-09T10:06:28.500Z,73.98
2023-04-09T10:07:33.204Z,73.10
2023-04-09T10:08:38.164Z,72.99
2023-04-09T10:09:43.443Z,72.93
2023-04-09T10:10:48.803Z,71.00
2023-04-09T10:11:51.487Z,70.39
2023-04-09T10:12:53.129Z,69.71
2023-04-09T10:13:58.454Z,69.08
2023-04-09T10:15:05.157Z,69.59
2023-04-09T10:16:08.780Z,70.34
2023-04-09T10:17:11.664Z,69.06
2023-04-09T10:18:16.012Z,69.04
2023-04-09T10:19:17.922Z,69.70
2023-04-09T10:20:27.101Z,70.83
2023-04-09T10:21:37.699Z,70.34
2023-04-09T10:22:39.920Z,69.15
2023-04-09T10:23:44.905Z,69.44
2023-04-09T10:24:47.318Z,67.66
2023-04-09T10:25:49.890Z,66.92
2023-04-09T10:26:55.364Z,67.38
2023-04-09T10:28:01.482Z,66.69
2023-04-09T10:29:06.816Z,66.90
2023-04-09T10:30:10.636Z,66.07
2023-04-09T10:31:13.368Z,65.05
2023-04-09T10:32:21.543Z,66.14
2023-04-09T10:33:27.871Z,67.21
2023-04-09T10:34:30.565Z,67.54
2023-04-09T10:35:32.143Z,66.47
2023-04-09T10:36:34.626Z,64.83
2023-04-09T10:37:37.091Z,63.24
2023-04-09T10:38:41.133Z,62.72
2023-04-09T10:39:47.277Z,63.06
2023-04-09T10:40:50.775Z,60.68
2023-04-09T10:41:55.561Z,56.96
2023-04-09T10:42:59.394Z,55.03
2023-04-09T10:44:01.829Z,52.45
2023-04-09T10:45:10.661Z,49.74
2023-04-09T10:46:29.494Z,49.77
2023-04-09T10:47:33.994Z,48.82
2023-04-09T10:48:37.030Z,48.80
2023-04-09T10:49:40.656Z,48.54
2023-04-09T10:50:45.086Z,48.56
2023-04-09T10:51:50.900Z,49.21
2023-04-09T10:52:54.944Z,48.46
2023-04-09T10:53:56.404Z,46.26
2023-04-09T10:54:58.920Z,45.99
2023-04-09T10:56:01.959Z,43.15
2023-04-09T10:57:20.174Z,45.18
2023-04-09T10:58:22.844Z,47.26
2023-04-09T10:59:24.432Z,49.49
2023-04-09T11:00:26.880Z,47.06
2023-04-09T11:01:28.508Z,46.63
2023-04-09T11:03:12.118Z,46.30
2023-04-09T11:04:21.576Z,43.06
2023-04-09T11:05:28.957Z,44.23
2023-04-09T11:06:32.327Z,44.21
2023-04-09T11:07:40.465Z,41.93
2023-04-09T11:08:45.340Z,41.66
2023-04-09T11:09:47.657Z,38.67
2023-04-09T11:10:52.254Z,40.24
2023-04-09T11:11:53.957Z,38.51
2023-04-09T11:12:56.389Z,36.97
2023-04-09T11:13:59.834Z,37.74
2023-04-09T11:15:01.318Z,36.80
2023-04-09T11:16:06.854Z,35.83
2023-04-09T11:17:08.833Z,36.59
2023-04-09T11:18:15.484Z,36.10
2023-04-09T11:19:19.060Z,35.16
2023-04-09T11:20:23.321Z,35.90
2023-04-09T11:21:27.713Z,35.24
2023-04-09T11:22:30.293Z,35.24
2023-04-09T11:23:34.052Z,37.34
2023-04-09T11:24:41.956Z,39.03
2023-04-09T11:25:49.410Z,40.09
2023-04-09T11:26:51.281Z,38.31
2023-04-09T11:27:54.382Z,36.97
2023-04-09T11:28:58.604Z,37.42
2023-04-09T11:30:00.090Z,35.51
2023-04-09T11:31:06.216Z,35.26
2023-04-09T11:32:07.810Z,34.00
2023-04-09T11:33:10.768Z,33.00
2023-04-09T11:34:13.539Z,33.79
2023-04-09T11:35:17.826Z,34.03
2023-04-09T11:36:20.443Z,34.73
2023-04-09T11:37:22.549Z,34.72
2023-04-09T11:38:27.598Z,33.46
2023-04-09T11:39:29.178Z,34.30
2023-04-09T11:40:31.666Z,33.93
2023-04-09T11:41:33.956Z,34.08
2023-04-09T11:42:37.818Z,37.94
2023-04-09T11:43:40.300Z,40.29
2023-04-09T11:44:42.189Z,39.33
2023-04-09T11:45:47.088Z,41.92
2023-04-09T11:46:49.167Z,40.45
2023-04-09T11:47:52.641Z,41.02
2023-04-09T11:48:55.867Z,39.51
2023-04-09T11:49:58.444Z,38.63
2023-04-09T11:51:03.964Z,38.07
2023-04-09T11:52:05.986Z,38.30
2023-04-09T11:53:19.139Z,41.34
2023-04-09T11:54:20.805Z,38.35
2023-04-09T11:55:27.143Z,36.93
2023-04-09T11:56:29.245Z,37.19
2023-04-09T11:57:43.813Z,37.07
2023-04-09T11:58:47.477Z,38.19
2023-04-09T11:59:49.111Z,39.73
2023-04-09T12:00:53.989Z,41.26
2023-04-09T12:01:58.131Z,43.24
2023-04-09T12:03:03.605Z,47.20
2023-04-09T12:04:06.948Z,45.39
2023-04-09T12:05:11.811Z,43.87
2023-04-09T12:06:16.415Z,43.37
2023-04-09T12:07:17.939Z,43.84
2023-04-09T12:08:25.449Z,44.37
2023-04-09T12:09:27.145Z,44.10
2023-04-09T12:10:31.039Z,42.51
2023-04-09T12:11:32.662Z,41.31
2023-04-09T12:12:42.616Z,40.18
2023-04-09T12:13:46.910Z,41.99
2023-04-09T12:14:48.427Z,41.59
2023-04-09T12:15:51.405Z,41.34
2023-04-09T12:16:53.027Z,40.70
2023-04-09T12:17:56.766Z,40.14
2023-04-09T12:19:01.005Z,42.64
2023-04-09T12:20:03.518Z,43.54
2023-04-09T12:21:06.112Z,43.24
2023-04-09T12:22:09.844Z,44.13
2023-04-09T12:23:13.885Z,43.38
2023-04-09T12:24:16.965Z,43.08
2023-04-09T12:25:19.394Z,41.93
2023-04-09T12:26:21.284Z,39.91
2023-04-09T12:27:24.026Z,42.11
2023-04-09T12:28:25.496Z,40.93
2023-04-09T12:29:29.848Z,43.60
2023-04-09T12:30:32.766Z,44.47
2023-04-09T12:31:34.291Z,44.56
2023-04-09T12:32:37.139Z,45.44
2023-04-09T12:33:40.357Z,45.86
2023-04-09T12:34:41.985Z,46.31
2023-04-09T12:35:44.764Z,48.74
2023-04-09T12:36:46.400Z,47.50
2023-04-09T12:37:50.713Z,44.52
2023-04-09T12:38:53.420Z,41.96
2023-04-09T12:39:55.372Z,41.85
2023-04-09T12:40:57.842Z,42.51
2023-04-09T12:41:59.328Z,42.37
2023-04-09T12:43:02.534Z,43.28
2023-04-09T12:44:04.927Z,43.98
2023-04-09T12:45:08.921Z,44.26
2023-04-09T12:46:10.888Z,46.10
2023-04-09T12:47:13.357Z,48.52
2023-04-09T12:48:15.816Z,46.72
2023-04-09T12:49:17.338Z,43.94
2023-04-09T12:50:21.935Z,41.33
2023-04-09T12:51:23.847Z,42.64
2023-04-09T12:52:26.436Z,44.41
2023-04-09T12:53:31.970Z,44.21
2023-04-09T12:54:33.519Z,44.83
2023-04-09T12:55:36.088Z,45.25
2023-04-09T12:56:37.794Z,46.50
2023-04-09T12:57:42.435Z,45.76
2023-04-09T12:58:44.145Z,43.49
2023-04-09T12:59:46.807Z,42.97
2023-04-09T13:00:51.911Z,44.26
2023-04-09T13:01:53.707Z,42.74
2023-04-09T13:02:56.714Z,42.21
2023-04-09T13:03:58.916Z,40.76
2023-04-09T13:05:01.793Z,42.44
2023-04-09T13:06:03.679Z,44.49
2023-04-09T13:07:06.761Z,44.69
2023-04-09T13:08:09.534Z,45.69
2023-04-09T13:09:12.501Z,48.37
2023-04-09T13:10:18.084Z,50.20
2023-04-09T13:11:22.791Z,49.47
2023-04-09T13:12:25.575Z,47.19
2023-04-09T13:13:28.626Z,44.40
2023-04-09T13:14:31.582Z,43.08
2023-04-09T13:15:33.147Z,40.56
2023-04-09T13:16:35.722Z,38.21
2023-04-09T13:17:37.325Z,37.06
2023-04-09T13:18:44.611Z,36.33
2023-04-09T13:19:46.497Z,36.51
2023-04-09T13:20:50.569Z,38.58
2023-04-09T13:21:52.348Z,41.11
2023-04-09T13:22:54.781Z,41.89
2023-04-09T13:23:56.233Z,43.86
2023-04-09T13:24:59.978Z,47.20
2023-04-09T13:26:01.550Z,46.66
2023-04-09T13:27:04.651Z,46.03
2023-04-09T13:28:06.508Z,45.57
2023-04-09T13:29:12.052Z,45.15
2023-04-09T13:30:14.724Z,45.68
2023-04-09T13:31:16.483Z,45.56
2023-04-09T13:32:21.071Z,43.67
2023-04-09T13:33:23.075Z,41.27